sensor_id;sensor_type;location;lat;lon;timestamp;P1;durP1;ratioP1;P2;durP2;ratioP2
74777;SDS011;63298;53.164;8.610;2024-02-26T00:01:15;7.63;;;4.72;;
74777;SDS011;63298;53.164;8.610;2024-02-26T00:03:51;5.38;;;4.38;;
74777;SDS011;63298;53.164;8.610;2024-02-26T00:06:20;6.63;;;5.00;;
74777;SDS011;63298;53.164;8.610;2024-02-26T00:08:55;7.07;;;4.47;;
74777;SDS011;63298;53.164;8.610;2024-02-26T00:11:20;5.43;;;4.10;;
74777;SDS011;63298;53.164;8.610;2024-02-26T00:13:54;7.20;;;4.55;;
74777;SDS011;63298;53.164;8.610;2024-02-26T00:16:19;8.55;;;4.70;;
74777;SDS011;63298;53.164;8.610;2024-02-26T00:18:48;4.63;;;3.60;;
74777;SDS011;63298;53.164;8.610;2024-02-26T00:21:14;8.23;;;4.60;;
74777;SDS011;63298;53.164;8.610;2024-02-26T00:23:52;6.63;;;4.57;;
74777;SDS011;63298;53.164;8.610;2024-02-26T00:26:18;6.40;;;4.57;;
74777;SDS011;63298;53.164;8.610;2024-02-26T00:28:47;5.35;;;4.07;;
74777;SDS011;63298;53.164;8.610;2024-02-26T00:31:12;6.35;;;4.32;;
74777;SDS011;63298;53.164;8.610;2024-02-26T00:33:42;7.05;;;4.45;;
74777;SDS011;63298;53.164;8.610;2024-02-26T00:36:07;7.20;;;4.97;;
74777;SDS011;63298;53.164;8.610;2024-02-26T00:38:33;9.23;;;4.43;;
74777;SDS011;63298;53.164;8.610;2024-02-26T00:41:04;7.15;;;4.65;;
74777;SDS011;63298;53.164;8.610;2024-02-26T00:43:31;6.28;;;4.50;;
74777;SDS011;63298;53.164;8.610;2024-02-26T00:46:10;7.32;;;4.18;;
74777;SDS011;63298;53.164;8.610;2024-02-26T00:48:41;6.97;;;5.05;;
74777;SDS011;63298;53.164;8.610;2024-02-26T00:51:10;5.72;;;4.28;;
74777;SDS011;63298;53.164;8.610;2024-02-26T01:48:28;7.40;;;4.83;;
74777;SDS011;63298;53.164;8.610;2024-02-26T01:50:57;8.13;;;5.05;;
74777;SDS011;63298;53.164;8.610;2024-02-26T01:53:30;7.82;;;4.65;;
74777;SDS011;63298;53.164;8.610;2024-02-26T01:56:02;7.93;;;5.03;;
74777;SDS011;63298;53.164;8.610;2024-02-26T01:58:35;7.75;;;5.18;;
74777;SDS011;63298;53.164;8.610;2024-02-26T02:01:07;13.95;;;5.15;;
74777;SDS011;63298;53.164;8.610;2024-02-26T02:03:39;7.30;;;5.22;;
74777;SDS011;63298;53.164;8.610;2024-02-26T02:06:04;9.82;;;5.40;;
74777;SDS011;63298;53.164;8.610;2024-02-26T02:08:31;6.90;;;4.88;;
74777;SDS011;63298;53.164;8.610;2024-02-26T02:10:57;8.52;;;5.00;;
74777;SDS011;63298;53.164;8.610;2024-02-26T02:13:24;7.70;;;4.95;;
74777;SDS011;63298;53.164;8.610;2024-02-26T02:15:56;7.32;;;4.68;;
74777;SDS011;63298;53.164;8.610;2024-02-26T02:18:21;8.15;;;4.72;;
74777;SDS011;63298;53.164;8.610;2024-02-26T02:20:50;9.10;;;4.65;;
74777;SDS011;63298;53.164;8.610;2024-02-26T02:23:17;8.48;;;5.03;;
74777;SDS011;63298;53.164;8.610;2024-02-26T02:28:18;8.52;;;4.90;;
74777;SDS011;63298;53.164;8.610;2024-02-26T02:30:44;9.43;;;5.18;;
74777;SDS011;63298;53.164;8.610;2024-02-26T02:33:38;9.65;;;5.30;;
74777;SDS011;63298;53.164;8.610;2024-02-26T02:36:15;7.97;;;5.55;;
74777;SDS011;63298;53.164;8.610;2024-02-26T02:38:53;8.43;;;4.72;;
74777;SDS011;63298;53.164;8.610;2024-02-26T02:41:28;8.18;;;4.90;;
74777;SDS011;63298;53.164;8.610;2024-02-26T02:43:54;8.45;;;5.55;;
74777;SDS011;63298;53.164;8.610;2024-02-26T02:46:26;6.68;;;4.25;;
74777;SDS011;63298;53.164;8.610;2024-02-26T02:48:52;10.27;;;5.20;;
74777;SDS011;63298;53.164;8.610;2024-02-26T02:51:18;6.97;;;4.80;;
74777;SDS011;63298;53.164;8.610;2024-02-26T02:53:43;7.50;;;5.10;;
74777;SDS011;63298;53.164;8.610;2024-02-26T02:56:12;7.57;;;5.07;;
74777;SDS011;63298;53.164;8.610;2024-02-26T02:58:41;7.20;;;4.95;;
74777;SDS011;63298;53.164;8.610;2024-02-26T03:01:09;7.68;;;5.03;;
74777;SDS011;63298;53.164;8.610;2024-02-26T03:03:38;6.88;;;4.70;;
74777;SDS011;63298;53.164;8.610;2024-02-26T03:06:06;7.40;;;4.72;;
74777;SDS011;63298;53.164;8.610;2024-02-26T03:08:32;6.93;;;4.47;;
74777;SDS011;63298;53.164;8.610;2024-02-26T03:11:00;8.50;;;4.82;;
74777;SDS011;63298;53.164;8.610;2024-02-26T03:13:26;6.95;;;4.25;;
74777;SDS011;63298;53.164;8.610;2024-02-26T03:15:51;8.57;;;5.30;;
74777;SDS011;63298;53.164;8.610;2024-02-26T03:18:20;10.50;;;5.10;;
74777;SDS011;63298;53.164;8.610;2024-02-26T03:20:46;8.35;;;4.95;;
74777;SDS011;63298;53.164;8.610;2024-02-26T03:23:16;6.93;;;4.82;;
74777;SDS011;63298;53.164;8.610;2024-02-26T03:25:43;8.25;;;5.10;;
74777;SDS011;63298;53.164;8.610;2024-02-26T03:28:09;7.47;;;4.63;;
74777;SDS011;63298;53.164;8.610;2024-02-26T03:30:35;8.43;;;5.32;;
74777;SDS011;63298;53.164;8.610;2024-02-26T03:33:08;8.73;;;5.32;;
74777;SDS011;63298;53.164;8.610;2024-02-26T03:35:34;11.23;;;5.65;;
74777;SDS011;63298;53.164;8.610;2024-02-26T03:38:00;9.68;;;5.65;;
74777;SDS011;63298;53.164;8.610;2024-02-26T03:40:26;9.70;;;5.05;;
74777;SDS011;63298;53.164;8.610;2024-02-26T03:42:51;7.18;;;4.82;;
74777;SDS011;63298;53.164;8.610;2024-02-26T03:45:17;8.70;;;5.10;;
74777;SDS011;63298;53.164;8.610;2024-02-26T03:47:43;8.40;;;5.00;;
74777;SDS011;63298;53.164;8.610;2024-02-26T03:50:08;8.30;;;5.45;;
74777;SDS011;63298;53.164;8.610;2024-02-26T03:52:40;9.38;;;5.22;;
74777;SDS011;63298;53.164;8.610;2024-02-26T03:55:06;9.85;;;5.53;;
74777;SDS011;63298;53.164;8.610;2024-02-26T03:57:31;7.28;;;4.72;;
74777;SDS011;63298;53.164;8.610;2024-02-26T03:59:57;7.60;;;4.97;;
74777;SDS011;63298;53.164;8.610;2024-02-26T04:02:30;9.13;;;4.95;;
74777;SDS011;63298;53.164;8.610;2024-02-26T04:04:58;6.55;;;4.40;;
74777;SDS011;63298;53.164;8.610;2024-02-26T04:07:26;8.68;;;5.50;;
74777;SDS011;63298;53.164;8.610;2024-02-26T04:10:12;7.25;;;4.90;;
74777;SDS011;63298;53.164;8.610;2024-02-26T04:12:41;9.02;;;5.20;;
74777;SDS011;63298;53.164;8.610;2024-02-26T04:15:08;9.23;;;5.53;;
74777;SDS011;63298;53.164;8.610;2024-02-26T04:17:35;7.72;;;5.20;;
74777;SDS011;63298;53.164;8.610;2024-02-26T04:20:02;10.50;;;5.95;;
74777;SDS011;63298;53.164;8.610;2024-02-26T04:22:28;7.70;;;5.10;;
74777;SDS011;63298;53.164;8.610;2024-02-26T04:24:54;9.02;;;5.60;;
74777;SDS011;63298;53.164;8.610;2024-02-26T04:27:23;8.68;;;5.15;;
74777;SDS011;63298;53.164;8.610;2024-02-26T04:29:48;7.20;;;4.93;;
74777;SDS011;63298;53.164;8.610;2024-02-26T04:32:17;8.52;;;5.10;;
74777;SDS011;63298;53.164;8.610;2024-02-26T04:34:48;10.30;;;5.55;;
74777;SDS011;63298;53.164;8.610;2024-02-26T04:37:26;7.00;;;4.65;;
74777;SDS011;63298;53.164;8.610;2024-02-26T04:39:52;9.10;;;5.63;;
74777;SDS011;63298;53.164;8.610;2024-02-26T04:42:17;9.63;;;5.32;;
74777;SDS011;63298;53.164;8.610;2024-02-26T04:44:43;8.93;;;5.80;;
74777;SDS011;63298;53.164;8.610;2024-02-26T04:47:09;11.02;;;6.07;;
74777;SDS011;63298;53.164;8.610;2024-02-26T04:49:43;12.15;;;7.05;;
74777;SDS011;63298;53.164;8.610;2024-02-26T04:52:12;11.43;;;6.38;;
74777;SDS011;63298;53.164;8.610;2024-02-26T04:54:43;11.93;;;6.18;;
74777;SDS011;63298;53.164;8.610;2024-02-26T04:57:08;13.00;;;7.07;;
74777;SDS011;63298;53.164;8.610;2024-02-26T04:59:34;11.07;;;6.63;;
74777;SDS011;63298;53.164;8.610;2024-02-26T05:02:00;14.52;;;7.68;;
74777;SDS011;63298;53.164;8.610;2024-02-26T05:04:26;15.77;;;7.65;;
74777;SDS011;63298;53.164;8.610;2024-02-26T05:10:14;15.38;;;8.13;;
74777;SDS011;63298;53.164;8.610;2024-02-26T05:12:42;15.18;;;8.43;;
74777;SDS011;63298;53.164;8.610;2024-02-26T05:15:28;18.00;;;9.18;;
74777;SDS011;63298;53.164;8.610;2024-02-26T05:17:54;15.73;;;8.32;;
74777;SDS011;63298;53.164;8.610;2024-02-26T05:20:36;18.98;;;8.68;;
74777;SDS011;63298;53.164;8.610;2024-02-26T05:23:06;19.75;;;9.00;;
74777;SDS011;63298;53.164;8.610;2024-02-26T05:25:31;19.83;;;9.73;;
74777;SDS011;63298;53.164;8.610;2024-02-26T05:28:06;21.88;;;10.25;;
74777;SDS011;63298;53.164;8.610;2024-02-26T05:30:37;22.95;;;10.63;;
74777;SDS011;63298;53.164;8.610;2024-02-26T05:33:18;22.17;;;9.52;;
74777;SDS011;63298;53.164;8.610;2024-02-26T05:35:49;22.17;;;9.88;;
74777;SDS011;63298;53.164;8.610;2024-02-26T05:38:20;23.85;;;9.98;;
74777;SDS011;63298;53.164;8.610;2024-02-26T05:40:58;22.08;;;10.23;;
74777;SDS011;63298;53.164;8.610;2024-02-26T05:43:30;22.63;;;10.30;;
74777;SDS011;63298;53.164;8.610;2024-02-26T05:46:16;22.90;;;10.48;;
74777;SDS011;63298;53.164;8.610;2024-02-26T05:48:48;20.98;;;10.02;;
74777;SDS011;63298;53.164;8.610;2024-02-26T05:51:32;25.73;;;10.77;;
74777;SDS011;63298;53.164;8.610;2024-02-26T05:54:13;25.58;;;11.02;;
74777;SDS011;63298;53.164;8.610;2024-02-26T05:56:44;23.80;;;11.13;;
74777;SDS011;63298;53.164;8.610;2024-02-26T05:59:10;23.25;;;10.35;;
74777;SDS011;63298;53.164;8.610;2024-02-26T06:02:02;23.98;;;10.20;;
74777;SDS011;63298;53.164;8.610;2024-02-26T06:04:31;26.27;;;11.73;;
74777;SDS011;63298;53.164;8.610;2024-02-26T06:07:10;25.02;;;11.18;;
74777;SDS011;63298;53.164;8.610;2024-02-26T06:09:49;24.60;;;10.93;;
74777;SDS011;63298;53.164;8.610;2024-02-26T06:12:24;17.58;;;8.48;;
74777;SDS011;63298;53.164;8.610;2024-02-26T06:14:55;18.60;;;9.45;;
74777;SDS011;63298;53.164;8.610;2024-02-26T06:17:36;23.88;;;10.38;;
74777;SDS011;63298;53.164;8.610;2024-02-26T06:20:04;23.38;;;8.45;;
74777;SDS011;63298;53.164;8.610;2024-02-26T06:22:33;20.33;;;9.38;;
74777;SDS011;63298;53.164;8.610;2024-02-26T06:25:08;20.23;;;9.32;;
74777;SDS011;63298;53.164;8.610;2024-02-26T06:27:47;17.92;;;8.50;;
74777;SDS011;63298;53.164;8.610;2024-02-26T06:30:27;21.30;;;9.20;;
74777;SDS011;63298;53.164;8.610;2024-02-26T06:33:10;18.02;;;8.23;;
74777;SDS011;63298;53.164;8.610;2024-02-26T06:35:45;16.30;;;7.93;;
74777;SDS011;63298;53.164;8.610;2024-02-26T06:38:13;18.95;;;8.02;;
74777;SDS011;63298;53.164;8.610;2024-02-26T06:40:42;15.55;;;8.02;;
74777;SDS011;63298;53.164;8.610;2024-02-26T06:43:13;14.10;;;7.47;;
74777;SDS011;63298;53.164;8.610;2024-02-26T06:46:15;12.88;;;7.72;;
74777;SDS011;63298;53.164;8.610;2024-02-26T06:48:41;14.05;;;7.63;;
74777;SDS011;63298;53.164;8.610;2024-02-26T06:51:16;14.00;;;7.80;;
74777;SDS011;63298;53.164;8.610;2024-02-26T08:44:13;11.48;;;6.63;;
74777;SDS011;63298;53.164;8.610;2024-02-26T09:05:10;9.88;;;5.85;;
74777;SDS011;63298;53.164;8.610;2024-02-26T09:11:54;11.90;;;7.28;;
74777;SDS011;63298;53.164;8.610;2024-02-26T09:14:28;11.98;;;5.97;;
74777;SDS011;63298;53.164;8.610;2024-02-26T09:24:14;10.43;;;5.70;;
74777;SDS011;63298;53.164;8.610;2024-02-26T09:48:20;11.35;;;6.60;;
74777;SDS011;63298;53.164;8.610;2024-02-26T10:05:46;11.40;;;5.78;;
74777;SDS011;63298;53.164;8.610;2024-02-26T10:33:01;10.32;;;5.95;;
74777;SDS011;63298;53.164;8.610;2024-02-26T10:49:28;9.93;;;5.22;;
74777;SDS011;63298;53.164;8.610;2024-02-26T10:56:03;8.30;;;4.82;;
74777;SDS011;63298;53.164;8.610;2024-02-26T11:16:18;7.40;;;5.50;;
74777;SDS011;63298;53.164;8.610;2024-02-26T11:19:24;8.52;;;4.68;;
74777;SDS011;63298;53.164;8.610;2024-02-26T11:26:27;8.65;;;5.25;;
74777;SDS011;63298;53.164;8.610;2024-02-26T11:33:11;8.02;;;4.75;;
74777;SDS011;63298;53.164;8.610;2024-02-26T11:36:26;8.57;;;5.20;;
74777;SDS011;63298;53.164;8.610;2024-02-26T11:40:06;9.10;;;4.57;;
74777;SDS011;63298;53.164;8.610;2024-02-26T11:42:44;7.95;;;4.53;;
74777;SDS011;63298;53.164;8.610;2024-02-26T11:52:36;6.22;;;4.47;;
74777;SDS011;63298;53.164;8.610;2024-02-26T12:05:46;6.65;;;4.70;;
74777;SDS011;63298;53.164;8.610;2024-02-26T12:08:59;7.13;;;4.38;;
74777;SDS011;63298;53.164;8.610;2024-02-26T12:18:44;8.18;;;4.55;;
74777;SDS011;63298;53.164;8.610;2024-02-26T12:21:57;6.28;;;4.22;;
